Time;durP1;ratioP1;P1;durP2;ratioP2;P2;SDS_P1;SDS_P2;PMS_P1;PMS_P2;Temp;Humidity;BMP_temperature;BMP_pressure;BME280_temperature;BME280_humidity;BME280_pressure;Samples;Min_cycle;Max_cycle;Signal;HPM_P1;HPM_P2
2023/10/30 00:00:14;;;;;;;2.40;1.30;;;;;;;9.11;100.00;99749.44;4995814;28;20101;-87
2023/10/30 00:02:39;;;;;;;6.03;1.40;;;;;;;9.19;100.00;99755.25;4995185;28;20518;-87
2023/10/30 00:05:06;;;;;;;3.87;1.43;;;;;;;9.19;100.00;99755.25;4995514;28;20026;-86
2023/10/30 00:07:32;;;;;;;1.73;1.10;;;;;;;9.21;100.00;99761.25;4995989;28;20030;-87
2023/10/30 00:09:57;;;;;;;4.93;1.70;;;;;;;9.20;100.00;99763.88;4994967;28;20026;-85
2023/10/30 00:12:22;;;;;;;2.33;1.40;;;;;;;9.16;100.00;99757.94;4995709;28;20495;-87
2023/10/30 00:14:47;;;;;;;3.87;1.70;;;;;;;9.08;100.00;99747.78;4995559;28;20034;-86
2023/10/30 00:17:16;;;;;;;4.40;1.40;;;;;;;9.21;100.00;99775.94;4995368;28;20030;-86
2023/10/30 00:19:51;;;;;;;9.95;1.90;;;;;;;9.12;100.00;99771.84;4995218;28;20383;-86
2023/10/30 00:22:16;;;;;;;6.20;1.80;;;;;;;9.10;100.00;99774.50;4995971;28;20030;-87
2023/10/30 00:25:02;;;;;;;4.10;1.50;;;;;;;9.14;100.00;99774.38;4995127;28;20022;-86
2023/10/30 00:27:27;;;;;;;4.33;1.50;;;;;;;9.20;100.00;99785.44;4995593;28;20137;-86
2023/10/30 00:29:52;;;;;;;4.90;1.80;;;;;;;9.22;100.00;99796.59;4995002;28;20802;-86
2023/10/30 00:32:17;;;;;;;3.37;1.20;;;;;;;9.26;100.00;99810.31;4995550;28;20126;-86
2023/10/30 00:34:43;;;;;;;2.67;1.43;;;;;;;9.24;100.00;99809.50;4995145;28;20018;-86
2023/10/30 00:37:09;;;;;;;4.93;1.60;;;;;;;9.24;100.00;99812.97;4994773;28;20026;-87
2023/10/30 00:39:35;;;;;;;3.85;1.90;;;;;;;9.22;100.00;99798.34;4996075;28;20053;-87
2023/10/30 00:42:00;;;;;;;3.57;1.60;;;;;;;9.27;100.00;99817.19;4994961;28;20078;-87
2023/10/30 00:44:27;;;;;;;4.30;1.60;;;;;;;9.22;100.00;99811.31;4994745;28;20081;-87
2023/10/30 00:46:53;;;;;;;5.55;1.55;;;;;;;9.29;100.00;99814.59;4995228;28;20054;-86
2023/10/30 00:49:18;;;;;;;5.68;1.80;;;;;;;9.26;100.00;99823.25;4995159;28;20015;-86
2023/10/30 00:51:43;;;;;;;2.43;1.40;;;;;;;9.27;100.00;99825.81;4994451;28;20472;-86
2023/10/30 00:54:09;;;;;;;2.03;1.07;;;;;;;9.27;100.00;99831.00;4994838;28;20443;-87
2023/10/30 00:56:34;;;;;;;5.60;1.50;;;;;;;9.22;100.00;99827.66;4994718;28;20040;-87
2023/10/30 00:59:00;;;;;;;2.27;1.47;;;;;;;9.22;100.00;99825.09;4994549;28;20030;-86
2023/10/30 01:01:25;;;;;;;3.23;1.67;;;;;;;9.26;100.00;99834.47;4994354;28;20430;-87
2023/10/30 01:03:50;;;;;;;2.97;1.47;;;;;;;9.26;100.00;99844.84;4994415;28;20030;-87
2023/10/30 01:06:16;;;;;;;3.20;1.30;;;;;;;9.23;100.00;99849.25;4994229;28;20033;-86
2023/10/30 01:08:41;;;;;;;3.40;1.27;;;;;;;9.26;100.00;99854.31;4994693;28;20050;-86
2023/10/30 01:11:06;;;;;;;3.67;1.27;;;;;;;9.23;100.00;99844.06;4994742;28;20030;-86
2023/10/30 01:13:32;;;;;;;2.27;1.13;;;;;;;9.23;100.00;99854.44;4994204;28;20084;-86
2023/10/30 01:15:58;;;;;;;3.20;1.60;;;;;;;9.28;100.00;99860.31;4994817;28;20058;-87
2023/10/30 01:18:23;;;;;;;3.13;1.20;;;;;;;9.28;100.00;99860.31;4995761;28;20030;-87
2023/10/30 01:20:49;;;;;;;3.10;1.80;;;;;;;9.27;100.00;99863.78;4993934;28;20086;-87
2023/10/30 01:23:15;;;;;;;4.90;1.47;;;;;;;9.25;100.00;99865.56;4995094;28;20077;-86
2023/10/30 01:25:40;;;;;;;4.13;1.37;;;;;;;9.29;100.00;99863.78;4994193;28;20041;-86
2023/10/30 01:28:05;;;;;;;1.53;1.10;;;;;;;9.28;100.00;99857.72;4993628;28;20038;-88
2023/10/30 01:30:31;;;;;;;4.17;1.40;;;;;;;9.34;100.00;99867.94;4994489;28;20644;-87
2023/10/30 01:32:56;;;;;;;2.50;1.20;;;;;;;9.32;100.00;99859.38;4994642;28;20038;-87
2023/10/30 01:35:21;;;;;;;3.73;1.13;;;;;;;9.34;100.00;99856.72;4994270;28;20019;-87
2023/10/30 01:37:46;;;;;;;4.23;1.53;;;;;;;9.33;100.00;99853.31;4994246;28;20476;-87
2023/10/30 01:40:14;;;;;;;2.97;1.33;;;;;;;9.36;100.00;99848.03;4993778;28;20037;-86
2023/10/30 01:42:39;;;;;;;2.38;1.10;;;;;;;9.35;100.00;99841.13;4993887;28;20061;-86
2023/10/30 01:45:05;;;;;;;2.43;1.13;;;;;;;9.37;100.00;99848.88;4994512;28;20390;-87
2023/10/30 01:47:30;;;;;;;2.93;1.37;;;;;;;9.41;100.00;99855.66;4993286;28;20030;-87
2023/10/30 01:49:57;;;;;;;5.67;1.67;;;;;;;9.40;100.00;99852.25;4993852;28;20028;-87
2023/10/30 01:52:23;;;;;;;;;;;;;;;9.46;100.00;99858.16;4994557;28;20097;-87
2023/10/30 01:54:52;;;;;;;6.53;1.70;;;;;;;9.47;100.00;99860.69;4992935;28;20028;-87
2023/10/30 01:57:18;;;;;;;5.30;1.60;;;;;;;9.50;100.00;99863.22;4993850;28;20431;-86
2023/10/30 01:59:45;;;;;;;4.00;1.50;;;;;;;9.51;100.00;99861.47;4993496;28;20138;-86
2023/10/30 02:02:11;;;;;;;3.13;1.35;;;;;;;9.49;100.00;99866.69;4993265;28;20041;-86
2023/10/30 02:04:37;;;;;;;5.43;1.65;;;;;;;9.48;100.00;99875.34;4993999;28;20022;-87
2023/10/30 02:07:05;;;;;;;5.53;1.80;;;;;;;9.52;100.00;99871.78;4992852;28;20493;-86
2023/10/30 02:09:31;;;;;;;5.68;1.50;;;;;;;9.54;100.00;99877.75;4993576;28;20042;-87
2023/10/30 02:11:57;;;;;;;6.38;1.70;;;;;;;9.49;100.00;99855.47;4993920;28;20026;-87
2023/10/30 02:14:24;;;;;;;6.63;1.58;;;;;;;9.53;100.00;99870.88;4993815;28;20029;-86
2023/10/30 02:16:49;;;;;;;8.00;1.90;;;;;;;9.51;100.00;99866.63;4993054;28;20034;-86
2023/10/30 02:19:21;;;;;;;3.70;1.60;;;;;;;9.57;100.00;99869.91;4993868;28;20304;-87
2023/10/30 02:21:47;;;;;;;5.63;1.95;;;;;;;9.58;100.00;99878.53;4993511;28;20030;-86
2023/10/30 02:24:13;;;;;;;5.20;1.50;;;;;;;9.58;100.00;99871.63;4992985;28;20367;-87
2023/10/30 02:26:38;;;;;;;3.60;1.40;;;;;;;9.57;100.00;99871.66;4993442;28;20372;-87
2023/10/30 02:29:05;;;;;;;3.93;1.40;;;;;;;9.57;100.00;99875.09;4993381;28;20034;-87
2023/10/30 02:31:32;;;;;;;;;;;;;;;9.56;100.00;99872.56;4993667;28;20488;-87
2023/10/30 02:33:59;;;;;;;2.40;1.23;;;;;;;9.53;100.00;99870.88;4993477;28;20267;-87
2023/10/30 02:36:25;;;;;;;7.57;1.60;;;;;;;9.47;100.00;99859.84;4993749;28;20113;-85
2023/10/30 02:38:51;;;;;;;3.73;1.70;;;;;;;9.54;100.00;99857.03;4993017;28;20097;-87
2023/10/30 02:41:17;;;;;;;5.57;1.70;;;;;;;9.54;100.00;99857.03;4993216;28;20203;-87
2023/10/30 02:43:42;;;;;;;3.57;1.37;;;;;;;9.56;100.00;99859.63;4993185;28;20097;-87
2023/10/30 02:46:07;;;;;;;3.40;1.30;;;;;;;9.54;100.00;99856.22;4993541;28;20474;-87
2023/10/30 02:48:33;;;;;;;4.77;1.50;;;;;;;9.54;100.00;99851.03;4993824;28;20030;-87
2023/10/30 02:50:58;;;;;;;4.53;1.63;;;;;;;9.53;100.00;99851.91;4992742;28;20041;-87
2023/10/30 02:53:23;;;;;;;2.73;1.57;;;;;;;9.53;100.00;99850.16;4993645;28;20113;-87
2023/10/30 02:55:49;;;;;;;5.27;1.60;;;;;;;9.54;100.00;99856.22;4992740;28;20038;-86
2023/10/30 02:58:14;;;;;;;1.20;1.00;;;;;;;9.52;100.00;99855.38;4992687;28;20031;-86
2023/10/30 03:00:39;;;;;;;3.90;1.43;;;;;;;9.48;100.00;99851.19;4993206;28;20463;-86
2023/10/30 03:03:05;;;;;;;3.80;1.43;;;;;;;9.49;100.00;99850.28;4993563;28;20026;-87
2023/10/30 03:05:30;;;;;;;7.10;1.67;;;;;;;9.48;100.00;99844.28;4992755;28;20034;-86
2023/10/30 03:07:55;;;;;;;3.70;1.43;;;;;;;9.52;100.00;99850.22;4992897;28;20030;-87
2023/10/30 03:10:21;;;;;;;5.47;1.60;;;;;;;9.53;100.00;99847.56;4993710;28;20084;-87
2023/10/30 03:12:47;;;;;;;3.87;1.40;;;;;;;9.56;100.00;99863.03;4992908;28;20031;-87
2023/10/30 03:15:12;;;;;;;3.50;1.10;;;;;;;9.48;100.00;99854.63;4993473;28;20734;-87
2023/10/30 03:17:37;;;;;;;2.40;1.33;;;;;;;9.53;100.00;99870.88;4994683;28;20054;-87
2023/10/30 03:20:08;;;;;;;3.57;1.50;;;;;;;9.53;100.00;99870.88;4996396;28;20038;-86
2023/10/30 03:22:33;;;;;;;2.72;1.10;;;;;;;9.50;100.00;99864.94;4996992;28;20029;-86
2023/10/30 03:24:59;;;;;;;2.93;1.17;;;;;;;9.50;100.00;99878.75;4996420;28;20896;-86
2023/10/30 03:27:24;;;;;;;1.63;1.23;;;;;;;9.47;100.00;99881.41;4996433;28;20037;-87
2023/10/30 03:29:50;;;;;;;4.03;1.30;;;;;;;9.46;100.00;99878.88;4996424;28;20124;-86
2023/10/30 03:32:15;;;;;;;1.10;1.00;;;;;;;9.48;100.00;99871.91;4996945;28;20594;-87
2023/10/30 03:34:40;;;;;;;3.73;0.97;;;;;;;9.46;100.00;99878.88;4996358;28;20022;-87
2023/10/30 03:37:07;;;;;;;1.90;1.10;;;;;;;9.44;100.00;99865.94;4996353;28;20398;-86
2023/10/30 03:39:32;;;;;;;;;;;;;;;9.45;100.00;99877.19;4996877;28;20501;-87
2023/10/30 03:41:58;;;;;;;3.07;1.10;;;;;;;9.35;100.00;99861.84;4995450;28;19918;-86
2023/10/30 03:44:24;;;;;;;1.10;1.00;;;;;;;9.40;100.00;99869.53;4996551;28;20049;-87
2023/10/30 03:46:50;;;;;;;2.45;1.10;;;;;;;9.41;100.00;99869.47;4995687;28;20022;-86
2023/10/30 03:49:15;;;;;;;1.80;1.17;;;;;;;9.38;100.00;99863.53;4996378;28;20038;-86
2023/10/30 03:51:40;;;;;;;1.97;1.00;;;;;;;9.40;100.00;99867.78;4995777;28;20121;-86
2023/10/30 03:54:06;;;;;;;1.23;0.80;;;;;;;9.39;100.00;99873.84;4995196;28;20118;-87
2023/10/30 03:56:31;;;;;;;1.87;1.00;;;;;;;9.36;100.00;99868.72;4996306;28;20038;-87
2023/10/30 03:58:56;;;;;;;2.73;0.97;;;;;;;9.34;100.00;99872.25;4995812;28;20066;-86
2023/10/30 04:01:24;;;;;;;1.23;0.90;;;;;;;9.30;100.00;99874.09;4995547;28;20037;-87
2023/10/30 04:03:49;;;;;;;1.67;0.90;;;;;;;9.26;100.00;99875.91;4995711;28;20409;-86
2023/10/30 04:06:15;;;;;;;2.47;0.80;;;;;;;9.29;100.00;99871.53;4996263;28;20026;-87
2023/10/30 04:08:40;;;;;;;4.00;1.27;;;;;;;9.26;100.00;99872.44;4995356;28;20015;-87
2023/10/30 04:11:12;;;;;;;1.37;0.70;;;;;;;9.25;100.00;99873.34;4995694;28;20022;-87
2023/10/30 04:13:37;;;;;;;1.48;0.70;;;;;;;9.23;100.00;99872.56;4995730;28;20057;-86
2023/10/30 04:16:03;;;;;;;3.17;1.30;;;;;;;9.22;100.00;99868.25;4995025;28;20027;-86
2023/10/30 04:18:28;;;;;;;3.40;1.03;;;;;;;9.18;100.00;99866.63;4995771;28;20506;-87
2023/10/30 04:20:53;;;;;;;1.40;0.97;;;;;;;9.22;100.00;99870.84;4995035;28;20511;-85
2023/10/30 04:23:19;;;;;;;2.00;1.03;;;;;;;9.21;100.00;99869.16;4994870;28;20038;-87
2023/10/30 04:25:44;;;;;;;2.00;1.00;;;;;;;9.17;100.00;99873.56;4995100;28;20045;-87
2023/10/30 04:28:09;;;;;;;3.67;1.10;;;;;;;9.15;100.00;99869.28;4995236;28;20050;-86
2023/10/30 04:30:35;;;;;;;3.03;1.10;;;;;;;9.15;100.00;99874.47;4994676;28;20030;-87
2023/10/30 04:33:01;;;;;;;1.47;0.87;;;;;;;9.12;100.00;99875.41;4995574;28;20029;-86
2023/10/30 04:35:26;;;;;;;5.17;1.57;;;;;;;9.13;100.00;99874.50;4995624;28;20030;-88
2023/10/30 04:37:51;;;;;;;3.93;1.23;;;;;;;9.11;100.00;99874.56;4995179;28;20057;-87
2023/10/30 04:40:17;;;;;;;2.10;0.90;;;;;;;9.13;100.00;99882.28;4995651;28;20030;-87
2023/10/30 04:42:43;;;;;;;3.10;1.00;;;;;;;9.11;100.00;99874.56;4995190;28;20395;-87
2023/10/30 04:45:08;;;;;;;6.57;1.43;;;;;;;9.07;100.00;99880.69;4995059;28;20033;-88
2023/10/30 04:47:34;;;;;;;2.60;1.07;;;;;;;9.09;100.00;99881.50;4995389;28;20026;-88
2023/10/30 04:49:59;;;;;;;3.70;1.20;;;;;;;9.09;100.00;99881.50;4995026;28;20495;-88
2023/10/30 04:52:25;;;;;;;2.73;1.17;;;;;;;9.05;100.00;99874.69;4995375;28;20026;-87
2023/10/30 04:54:50;;;;;;;1.50;0.90;;;;;;;9.08;100.00;99884.97;4995156;28;20378;-87
2023/10/30 04:57:16;;;;;;;4.10;1.00;;;;;;;9.12;100.00;99881.41;4994279;28;20031;-88
2023/10/30 04:59:41;;;;;;;1.03;0.90;;;;;;;9.08;100.00;99876.34;4995250;28;20022;-86
2023/10/30 05:02:07;;;;;;;4.37;1.23;;;;;;;9.08;100.00;99869.44;4995578;28;20042;-88
2023/10/30 05:04:33;;;;;;;4.33;1.40;;;;;;;9.06;100.00;99871.22;4994472;28;20517;-87
2023/10/30 05:07:01;;;;;;;2.55;1.00;;;;;;;9.05;100.00;99866.94;4994754;28;20391;-88
2023/10/30 05:09:26;;;;;;;1.77;1.17;;;;;;;9.00;100.00;99866.22;4995250;28;20037;-87
2023/10/30 05:11:51;;;;;;;0.87;0.80;;;;;;;8.99;100.00;99872.28;4994056;28;20030;-88
2023/10/30 05:14:17;;;;;;;1.03;0.80;;;;;;;8.99;100.00;99867.09;4994841;28;20026;-87
2023/10/30 05:16:42;;;;;;;0.43;0.43;;;;;;;8.94;100.00;99868.94;4994478;28;20045;-87
2023/10/30 05:19:07;;;;;;;1.60;0.80;;;;;;;8.93;100.00;99872.41;4994012;28;20034;-87
2023/10/30 05:21:32;;;;;;;1.30;0.80;;;;;;;8.92;100.00;99875.88;4994308;28;20125;-84
2023/10/30 05:23:58;;;;;;;1.43;0.63;;;;;;;8.91;100.00;99880.22;4993993;28;20034;-84
2023/10/30 05:26:23;;;;;;;2.30;1.00;;;;;;;8.85;100.00;99871.75;4993566;28;20045;-84
2023/10/30 05:28:48;;;;;;;1.50;1.10;;;;;;;8.83;100.00;99871.78;4993926;28;20057;-84
2023/10/30 05:31:14;;;;;;;1.10;0.70;;;;;;;8.81;100.00;99876.97;4994121;28;20119;-83
2023/10/30 05:33:39;;;;;;;0.63;0.60;;;;;;;8.80;100.00;99866.69;4994511;28;20081;-90
2023/10/30 05:36:04;;;;;;;1.13;0.77;;;;;;;8.76;100.00;99860.72;4994916;28;20034;-90
2023/10/30 05:38:30;;;;;;;1.63;0.90;;;;;;;8.72;100.00;99850.50;4994567;28;20422;-89
2023/10/30 05:40:56;;;;;;;1.47;0.63;;;;;;;8.76;100.00;99854.69;4993627;28;20034;-90
2023/10/30 05:43:22;;;;;;;0.73;0.70;;;;;;;8.70;100.00;99853.09;4994994;28;20096;-89
2023/10/30 05:45:47;;;;;;;2.37;0.67;;;;;;;8.73;100.00;99862.50;4994761;28;20026;-90
2023/10/30 05:48:13;;;;;;;0.63;0.60;;;;;;;8.65;100.00;99860.13;4994652;28;20026;-90
2023/10/30 05:50:38;;;;;;;1.70;0.80;;;;;;;8.71;100.00;99862.56;4994763;28;20026;-88
2023/10/30 05:53:04;;;;;;;1.27;0.90;;;;;;;8.72;100.00;99866.03;4994038;28;20176;-88
2023/10/30 05:55:29;;;;;;;1.03;0.93;;;;;;;8.72;100.00;99864.25;4994005;28;20037;-87
2023/10/30 05:57:55;;;;;;;1.20;0.70;;;;;;;8.70;100.00;99860.84;4993827;28;20037;-87
2023/10/30 06:00:22;;;;;;;2.78;0.80;;;;;;;8.65;100.00;99845.44;4993886;28;20498;-87
2023/10/30 06:02:48;;;;;;;0.98;0.90;;;;;;;8.65;100.00;99844.63;4993291;28;20101;-88
2023/10/30 06:05:14;;;;;;;1.63;0.87;;;;;;;8.71;100.00;99847.03;4994201;28;20460;-88
2023/10/30 06:07:41;;;;;;;1.35;0.90;;;;;;;8.73;100.00;99850.44;4992809;28;20034;-85
2023/10/30 06:10:08;;;;;;;2.22;1.10;;;;;;;8.72;100.00;99851.34;4994038;28;20026;-86
2023/10/30 06:12:33;;;;;;;1.92;0.70;;;;;;;8.72;100.00;99850.50;4993639;28;20035;-86
2023/10/30 06:14:58;;;;;;;1.30;0.80;;;;;;;8.72;100.00;99858.25;4992404;28;20382;-87
2023/10/30 06:17:24;;;;;;;0.83;0.80;;;;;;;8.74;100.00;99865.09;4993170;28;20128;-86
2023/10/30 06:19:53;;;;;;;0.77;0.50;;;;;;;8.72;100.00;99856.50;4993209;28;20026;-86
2023/10/30 06:22:18;;;;;;;0.88;0.60;;;;;;;8.71;100.00;99859.97;4992719;28;20081;-86
2023/10/30 06:24:44;;;;;;;1.20;0.50;;;;;;;8.72;100.00;99873.78;4993307;28;20022;-87
2023/10/30 06:27:09;;;;;;;1.73;0.60;;;;;;;8.64;100.00;99869.59;4993368;28;20399;-86
2023/10/30 06:29:38;;;;;;;1.53;1.00;;;;;;;8.65;100.00;99884.25;4992697;28;20031;-85
2023/10/30 06:32:03;;;;;;;3.72;1.20;;;;;;;8.63;100.00;99888.59;4993158;28;20391;-85
2023/10/30 06:34:29;;;;;;;2.10;1.03;;;;;;;8.64;100.00;99890.31;4993194;28;20046;-85
2023/10/30 06:36:54;;;;;;;2.43;0.97;;;;;;;8.61;100.00;99884.34;4992575;28;20034;-86
2023/10/30 06:39:20;;;;;;;1.02;0.73;;;;;;;8.67;100.00;99891.13;4993215;28;20118;-85
2023/10/30 06:41:48;;;;;;;2.33;1.15;;;;;;;8.65;100.00;99901.53;4992865;28;20073;-84
2023/10/30 06:44:14;;;;;;;2.65;0.88;;;;;;;8.67;100.00;99907.47;4991985;28;20431;-84
2023/10/30 06:46:40;;;;;;;2.08;1.08;;;;;;;8.65;100.00;99910.13;4992825;28;20063;-84
2023/10/30 06:49:05;;;;;;;1.27;1.17;;;;;;;8.64;100.00;99910.16;4992584;28;20064;-85
2023/10/30 06:51:30;;;;;;;1.57;0.93;;;;;;;8.61;100.00;99915.41;5007509;28;20052;-85
2023/10/30 06:53:55;;;;;;;2.25;1.20;;;;;;;8.62;100.00;99909.34;5016008;28;20037;-84
2023/10/30 06:56:21;;;;;;;1.77;1.13;;;;;;;8.62;100.00;99910.16;5008371;28;20395;-85
2023/10/30 06:58:49;;;;;;;0.63;0.63;;;;;;;8.68;100.00;99909.19;5007592;28;20053;-85
2023/10/30 07:01:14;;;;;;;1.00;0.60;;;;;;;8.69;100.00;99910.88;4996589;28;20038;-85
2023/10/30 07:03:40;;;;;;;2.33;1.10;;;;;;;8.71;100.00;99911.72;4996580;28;20026;-85
2023/10/30 07:06:06;;;;;;;0.88;0.65;;;;;;;8.74;100.00;99908.19;5012937;28;20028;-85
2023/10/30 07:08:32;;;;;;;1.45;0.80;;;;;;;8.73;100.00;99904.78;5016257;28;20056;-85
2023/10/30 07:10:57;;;;;;;2.90;1.10;;;;;;;8.77;100.00;99906.41;4995685;28;20034;-85
2023/10/30 07:13:23;;;;;;;2.30;1.00;;;;;;;8.81;100.00;99914.94;4997056;28;20379;-84
2023/10/30 07:15:49;;;;;;;1.83;0.90;;;;;;;8.81;100.00;99908.03;4995756;28;20040;-84
2023/10/30 07:18:14;;;;;;;0.90;0.80;;;;;;;8.87;100.00;99906.19;5009647;28;20014;-84
2023/10/30 07:20:39;;;;;;;1.60;0.90;;;;;;;8.88;100.00;99913.06;5015131;28;20432;-85
2023/10/30 07:23:04;;;;;;;0.70;0.70;;;;;;;8.90;100.00;99913.88;4996698;28;20023;-84
2023/10/30 07:25:30;;;;;;;1.20;0.80;;;;;;;8.90;100.00;99919.91;4995644;28;20467;-86
2023/10/30 07:27:55;;;;;;;2.90;1.20;;;;;;;8.90;100.00;99914.72;4996197;28;20034;-85
2023/10/30 07:30:23;;;;;;;3.90;1.67;;;;;;;8.99;100.00;99925.75;4996299;28;20463;-85
2023/10/30 07:32:49;;;;;;;2.90;1.23;;;;;;;8.98;100.00;99927.50;4995817;28;20029;-85
2023/10/30 07:35:15;;;;;;;1.27;1.17;;;;;;;8.99;100.00;99943.88;5015994;28;20033;-86
2023/10/30 07:37:40;;;;;;;2.97;1.40;;;;;;;8.95;100.00;99933.56;5006333;28;20060;-86
2023/10/30 07:40:06;;;;;;;2.73;1.10;;;;;;;9.01;100.00;99942.94;4995255;28;20038;-86
2023/10/30 07:42:31;;;;;;;4.07;1.60;;;;;;;9.08;100.00;99949.69;4995710;28;20123;-86
2023/10/30 07:44:57;;;;;;;2.00;1.40;;;;;;;9.09;100.00;99945.34;4995658;28;20023;-86
2023/10/30 07:47:22;;;;;;;3.40;1.50;;;;;;;9.14;100.00;99950.41;4995233;28;20027;-86
2023/10/30 07:49:50;;;;;;;3.33;1.03;;;;;;;9.19;100.00;99946.00;4995724;28;20364;-87
2023/10/30 07:52:15;;;;;;;4.90;1.70;;;;;;;9.22;100.00;99943.34;4995615;28;20085;-86
2023/10/30 07:54:41;;;;;;;4.33;1.40;;;;;;;9.23;100.00;99945.03;4994137;28;20550;-86
2023/10/30 07:57:10;;;;;;;1.47;1.10;;;;;;;9.29;100.00;99944.88;4995572;28;20391;-86
2023/10/30 07:59:35;;;;;;;5.60;1.60;;;;;;;9.33;100.00;99940.47;4995558;28;20030;-86
2023/10/30 08:02:01;;;;;;;5.03;1.50;;;;;;;9.36;100.00;99941.25;4994675;28;20026;-86
2023/10/30 08:04:26;;;;;;;2.80;1.20;;;;;;;9.43;100.00;99944.53;4995256;28;20022;-86
2023/10/30 08:06:51;;;;;;;3.60;1.30;;;;;;;9.47;100.00;99947.88;5006677;28;20054;-86
2023/10/30 08:09:17;;;;;;;2.47;1.40;;;;;;;9.49;100.00;99934.03;5014601;28;20057;-86
2023/10/30 08:11:42;;;;;;;3.40;1.50;;;;;;;9.53;100.00;99947.75;4997145;28;20475;-86
2023/10/30 08:14:07;;;;;;;3.47;1.20;;;;;;;9.59;100.00;99945.00;4994614;28;20105;-86
2023/10/30 08:16:34;;;;;;;5.33;1.53;;;;;;;9.64;100.00;99945.75;4995495;28;20065;-87
2023/10/30 08:19:00;;;;;;;;;;;;;;;9.72;100.00;99954.16;4995745;28;20054;-86
2023/10/30 08:21:25;;;;;;;4.33;1.60;;;;;;;9.77;100.00;99941.06;4994856;28;20405;-86
2023/10/30 08:23:50;;;;;;;4.40;1.60;;;;;;;9.85;100.00;99952.09;5012276;28;20037;-86
2023/10/30 08:26:15;;;;;;;3.33;1.57;;;;;;;9.96;100.00;99950.97;5015038;28;20084;-87
2023/10/30 08:28:42;;;;;;;2.40;1.20;;;;;;;10.00;100.00;99956.03;5013649;28;20026;-88
2023/10/30 08:31:11;;;;;;;2.85;1.52;;;;;;;10.10;100.00;99950.59;4998936;28;20154;-85
2023/10/30 08:33:36;;;;;;;2.28;1.35;;;;;;;10.19;100.00;99958.09;4995288;28;20383;-87
2023/10/30 08:36:01;;;;;;;4.73;1.63;;;;;;;10.29;100.00;99967.31;4994042;28;20038;-86
2023/10/30 08:38:26;;;;;;;3.47;1.57;;;;;;;10.26;100.00;99962.22;4995602;28;20023;-86
2023/10/30 08:40:52;;;;;;;8.67;1.97;;;;;;;10.41;100.00;99967.91;4994540;28;20563;-85
2023/10/30 08:43:17;;;;;;;4.47;1.70;;;;;;;10.45;100.00;99951.38;4994369;28;20027;-86
2023/10/30 08:45:43;;;;;;;2.67;1.53;;;;;;;10.54;100.00;99945.91;4994889;28;20034;-86
2023/10/30 08:48:12;;;;;;;3.73;1.40;;;;;;;10.61;100.00;99950.00;4995079;28;20057;-86
2023/10/30 08:50:38;;;;;;;4.45;1.58;;;;;;;10.64;100.00;99943.84;4994152;28;20030;-86
2023/10/30 08:53:03;;;;;;;4.80;1.57;;;;;;;10.69;100.00;99944.59;4994892;28;20375;-87
2023/10/30 08:55:28;;;;;;;4.73;1.67;;;;;;;10.81;100.00;99958.91;4995086;28;20117;-89
2023/10/30 08:57:57;;;;;;;3.60;1.90;;;;;;;10.88;100.00;99960.44;4993581;28;20026;-86
2023/10/30 09:00:22;;;;;;;3.72;1.20;;;;;;;10.94;100.00;99954.22;4994382;28;20061;-86
2023/10/30 09:02:47;;;;;;;4.13;1.53;;;;;;;11.01;100.00;99945.34;4994554;28;20463;-88
2023/10/30 09:05:12;;;;;;;2.57;1.27;;;;;;;11.07;100.00;99957.28;4994307;28;20403;-87
2023/10/30 09:07:50;;;;;;;3.57;1.30;;;;;;;11.15;100.00;99960.47;4994090;28;20081;-88
2023/10/30 09:10:15;;;;;;;5.78;1.58;;;;;;;11.08;100.00;99954.66;4994409;28;20158;-88
2023/10/30 09:12:41;;;;;;;3.13;1.50;;;;;;;11.19;100.00;99975.06;4993641;28;20117;-86
2023/10/30 09:15:07;;;;;;;3.10;1.50;;;;;;;11.21;100.00;99959.41;4994222;28;20033;-86
2023/10/30 09:17:33;;;;;;;;;;;;;;;11.30;100.00;99964.34;4994032;28;20022;-87
2023/10/30 09:19:58;;;;;;;4.40;1.77;;;;;;;11.24;100.00;99954.13;4994124;28;20716;-87
2023/10/30 09:22:23;;;;;;;3.53;1.60;;;;;;;11.36;100.00;99960.69;4994465;28;20027;-87
2023/10/30 09:24:48;;;;;;;2.53;1.23;;;;;;;11.34;100.00;99958.13;4993249;28;20486;-86
2023/10/30 09:27:14;;;;;;;2.53;1.40;;;;;;;11.42;100.00;99958.75;4994641;28;20037;-86
2023/10/30 09:29:40;;;;;;;3.07;1.37;;;;;;;11.45;100.00;99947.41;4993555;28;20486;-86
2023/10/30 09:32:06;;;;;;;1.37;1.00;;;;;;;11.47;100.00;99949.94;4993536;28;20485;-87
2023/10/30 09:34:31;;;;;;;2.63;1.40;;;;;;;11.47;100.00;99947.34;4994369;28;20026;-89
2023/10/30 09:36:58;;;;;;;1.37;1.13;;;;;;;11.48;100.00;99949.03;4994052;28;20467;-85
2023/10/30 09:39:23;;;;;;;;;;;;;;;11.53;100.00;99955.78;4993879;28;20184;-88
2023/10/30 09:41:48;;;;;;;5.97;1.43;;;;;;;11.55;100.00;99946.19;4994065;28;20009;-88
2023/10/30 09:44:15;;;;;;;3.57;1.40;;;;;;;11.56;100.00;99950.50;4994323;28;20379;-89
2023/10/30 09:46:41;;;;;;;2.92;1.40;;;;;;;11.58;100.00;99942.63;4993859;28;20101;-88
2023/10/30 09:49:08;;;;;;;4.25;1.25;;;;;;;11.64;100.00;99946.78;4994371;28;20050;-88
2023/10/30 09:51:35;;;;;;;4.22;1.00;;;;;;;11.67;100.00;99944.06;4994214;28;20465;-89
2023/10/30 09:54:01;;;;;;;;;;;;;;;11.70;100.00;99941.38;4993262;28;20027;-86
2023/10/30 09:56:26;;;;;;;2.80;1.02;;;;;;;11.72;100.00;99939.56;4993615;28;19955;-86
2023/10/30 09:58:52;;;;;;;1.77;1.03;;;;;;;11.73;100.00;99930.84;4993586;28;20026;-88
2023/10/30 10:01:19;;;;;;;2.33;1.40;;;;;;;11.74;100.00;99922.16;4992887;28;20019;-83
2023/10/30 10:03:44;;;;;;;3.30;1.25;;;;;;;11.80;100.00;99926.28;4993527;28;20029;-85
2023/10/30 10:06:10;;;;;;;2.87;1.20;;;;;;;11.78;100.00;99921.16;4993396;28;20395;-84
2023/10/30 10:08:35;;;;;;;2.10;1.20;;;;;;;11.79;100.00;99916.78;4992831;28;20030;-87
2023/10/30 10:11:02;;;;;;;4.23;1.30;;;;;;;11.83;100.00;99921.81;4993158;28;20031;-87
2023/10/30 10:13:29;;;;;;;3.35;1.25;;;;;;;11.86;100.00;99913.94;4993634;28;20029;-87
2023/10/30 10:15:55;;;;;;;;;;;;;;;11.94;100.00;99920.59;4994291;28;20033;-88
2023/10/30 10:18:28;;;;;;;3.47;1.33;;;;;;;11.96;100.00;99921.41;4993895;28;19918;-87
2023/10/30 10:20:55;;;;;;;2.25;1.05;;;;;;;12.00;100.00;99917.81;4992434;28;20037;-87
2023/10/30 10:23:20;;;;;;;3.80;1.17;;;;;;;12.04;100.00;99924.63;4993731;28;20521;-87
2023/10/30 10:25:55;;;;;;;7.97;1.70;;;;;;;12.02;100.00;99919.47;4992930;28;20080;-87
2023/10/30 10:28:21;;;;;;;4.00;1.40;;;;;;;12.10;100.00;99924.38;4976136;28;20018;-86
2023/10/30 10:30:47;;;;;;;;;;;;;;;12.13;100.00;99919.09;4978346;28;20106;-87
2023/10/30 10:33:12;;;;;;;1.30;0.90;;;;;;;12.16;100.00;99931.13;4978027;28;20367;-87
2023/10/30 10:35:40;;;;;;;2.40;0.97;;;;;;;12.21;100.00;99918.81;4977337;28;20042;-87
2023/10/30 10:38:09;;;;;;;2.17;0.90;;;;;;;12.27;100.00;99917.72;4977754;28;20030;-85
2023/10/30 10:40:36;;;;;;;2.80;1.08;;;;;;;12.31;100.00;99908.88;4978091;28;20027;-86
2023/10/30 10:43:02;;;;;;;2.50;0.98;;;;;;;12.34;100.00;99911.38;4976780;28;20440;-87
2023/10/30 10:45:30;;;;;;;3.53;1.45;;;;;;;12.37;100.00;99911.28;4977908;28;20031;-86
2023/10/30 10:47:55;;;;;;;2.75;1.20;;;;;;;12.40;100.00;99920.72;4977073;28;20026;-86
2023/10/30 10:50:21;;;;;;;3.33;1.20;;;;;;;12.42;100.00;99929.31;4976995;28;20114;-86
2023/10/30 10:52:48;;;;;;;3.97;1.33;;;;;;;12.43;100.00;99920.59;4977625;28;20102;-86
2023/10/30 10:55:20;;;;;;;2.10;1.00;;;;;;;12.44;100.00;99923.13;4977361;28;20027;-86
2023/10/30 10:57:57;;;;;;;3.22;1.20;;;;;;;12.47;100.00;99911.75;4993439;28;20034;-85
2023/10/30 11:00:28;;;;;;;2.15;1.10;;;;;;;12.48;100.00;99914.31;4996887;28;20353;-87
2023/10/30 11:03:00;;;;;;;4.38;1.38;;;;;;;12.55;100.00;99895.84;4995907;28;20026;-86
2023/10/30 11:05:29;;;;;;;2.80;1.25;;;;;;;12.51;100.00;99902.94;4996422;28;20498;-86
2023/10/30 11:08:07;;;;;;;2.08;0.98;;;;;;;12.57;100.00;99912.25;4996699;28;20053;-86
2023/10/30 11:10:37;;;;;;;1.55;1.02;;;;;;;12.60;100.00;99904.34;4996204;28;20057;-86
2023/10/30 11:13:29;;;;;;;2.22;1.17;;;;;;;12.62;100.00;99900.75;4996357;28;20057;-86
2023/10/30 11:16:11;;;;;;;2.80;1.00;;;;;;;12.61;100.00;99893.03;4996477;28;20033;-86
2023/10/30 11:18:41;;;;;;;2.28;1.20;;;;;;;12.65;100.00;99891.97;4996114;28;20031;-86
2023/10/30 11:21:15;;;;;;;1.80;0.88;;;;;;;12.68;100.00;99889.25;4996663;28;20018;-86
2023/10/30 11:23:58;;;;;;;1.52;0.93;;;;;;;12.69;100.00;99885.75;4995695;28;20593;-86
2023/10/30 11:26:29;;;;;;;2.03;1.27;;;;;;;12.73;100.00;99883.88;4996905;28;20033;-86
2023/10/30 11:28:58;;;;;;;0.70;0.65;;;;;;;12.73;100.00;99863.03;4996330;28;20030;-86